Zhe Pu Tuo 2012 — BKRA5 — position and weather

sailwx.info

Track history (hours):
 
Tides and Currents Weather Stations Pressure Air Temp Water Temp Dewpoint Dewpoint Depression Visibility Wind Speed Wind Dir Waves Ship Positions

Zhe Pu Tuo 2012

Last reported at 2014-Sep-30 12:33 UTC. Time now 2014-Sep-30 14:02 UTC.
Position N 29°56' E 122°16'.

Length 57 m; draft 4 m.

MMSI: 412763040.

Date/timePositionNaut miles runAvg speedWind from/ knotsBaromVisibWave heightAir tempDewpointWater temp
2014-Sep-30 12:33N 29°56' E 122°16'0 0.0
2014-Sep-30 11:33N 29°56' E 122°16'0 0.0
2014-Sep-30 10:34N 29°56' E 122°16'0 0.0
2014-Sep-30 02:33N 29°56' E 122°16'0 0.0
2014-Sep-30 01:33N 29°56' E 122°16'0 0.0
2014-Sep-29 11:33N 29°56' E 122°16'0 0.0
2014-Sep-29 10:32N 29°56' E 122°16'0 0.0
2014-Sep-28 12:14N 29°56' E 122°16'0 0.0
2014-Sep-28 11:33N 29°56' E 122°16'0 0.0
2014-Sep-28 10:33N 29°56' E 122°16'0 0.0
2014-Sep-28 07:20N 29°56' E 122°16'1 1.0
2014-Sep-28 06:33N 29°55' E 122°17'8 7.7
2014-Sep-28 05:33N 29°50' E 122°23'8 7.9
2014-Sep-28 04:33N 29°52' E 122°32'8 8.2
2014-Sep-28 03:33N 29°56' E 122°40'7 6.4
2014-Sep-28 02:31N 29°60' E 122°47'7 6.7
2014-Sep-28 01:30N 29°56' E 122°40'9 8.0
2014-Sep-28 00:26N 29°52' E 122°31'7 6.8
2014-Sep-27 23:24N 29°50' E 122°24'8 9.2
2014-Sep-27 22:33N 29°55' E 122°17'1 0.1
2014-Sep-27 13:33N 29°56' E 122°16'0 0.0
2014-Sep-27 12:33N 29°56' E 122°16'0 0.0
2014-Sep-27 11:34N 29°56' E 122°16'0 0.1
2014-Sep-27 10:33N 29°56' E 122°17'0 0.0
2014-Sep-27 09:34N 29°56' E 122°17'0 0.0
2014-Sep-27 08:34N 29°56' E 122°17'0 0.0
2014-Sep-27 07:33N 29°56' E 122°17'0 0.0
2014-Sep-27 03:12N 29°56' E 122°16'0 0.0
2014-Sep-27 02:34N 29°56' E 122°16'0 0.0
2014-Sep-26 14:09N 29°56' E 122°16'0 0.0
2014-Sep-26 13:33N 29°56' E 122°16'0 0.0
2014-Sep-26 12:33N 29°56' E 122°16'0 0.0
2014-Sep-26 11:33N 29°56' E 122°16'0 0.1
2014-Sep-26 10:33N 29°56' E 122°17'0 0.0
2014-Sep-26 09:33N 29°56' E 122°17'0 0.0
2014-Sep-26 08:33N 29°56' E 122°17'0 0.0
2014-Sep-26 07:33N 29°56' E 122°17'0 0.0
2014-Sep-26 03:18N 29°56' E 122°16'0 0.0
2014-Sep-26 02:33N 29°56' E 122°16'0 0.0
2014-Sep-25 14:14N 29°56' E 122°16'0 0.0
2014-Sep-25 13:34N 29°56' E 122°16'0 0.0
2014-Sep-25 12:33N 29°56' E 122°16'0 0.0
2014-Sep-25 11:33N 29°56' E 122°16'0 0.1
2014-Sep-25 10:33N 29°56' E 122°17'0 0.0
2014-Sep-25 09:33N 29°56' E 122°17'3 3.2
2014-Sep-25 08:34N 29°54' E 122°20'6 5.9
2014-Sep-25 07:32N 29°50' E 122°24'8 8.4
2014-Sep-25 06:32N 29°53' E 122°33'5 1.1
2014-Sep-25 01:33N 29°50' E 122°28'7 6.7
2014-Sep-25 00:33N 29°53' E 122°21'5 5.3
2014-Sep-24 23:33N 29°57' E 122°16'1 0.6
2014-Sep-24 22:33N 29°56' E 122°16'0 0.1
2014-Sep-24 21:33N 29°56' E 122°16'0 0.0
2014-Sep-24 13:33N 29°56' E 122°16'0 0.0
2014-Sep-24 12:33N 29°56' E 122°16'0 0.0
2014-Sep-24 11:33N 29°56' E 122°16'0 0.0
2014-Sep-24 10:33N 29°56' E 122°16'0 0.1
2014-Sep-24 09:33N 29°56' E 122°16'0 0.0
2014-Sep-24 08:33N 29°56' E 122°16'0 0.0
2014-Sep-24 07:33N 29°56' E 122°16'0 0.0
2014-Sep-24 02:33N 29°56' E 122°16'0 0.0
2014-Sep-24 01:33N 29°56' E 122°16'0 0.4
2014-Sep-24 00:33N 29°56' E 122°16'0 0.1
2014-Sep-23 23:33N 29°56' E 122°16'0 0.0
2014-Sep-23 22:33N 29°56' E 122°16'0 0.0
2014-Sep-23 16:07N 29°56' E 122°16'0 0.1
2014-Sep-23 15:33N 29°56' E 122°16'0 0.0
2014-Sep-23 14:33N 29°56' E 122°16'0 0.0
2014-Sep-23 13:33N 29°56' E 122°16'0 0.0
2014-Sep-23 12:33N 29°56' E 122°16'0 0.0
2014-Sep-23 11:34N 29°56' E 122°16'0 0.0
2014-Sep-23 10:33N 29°56' E 122°16'0 0.1
2014-Sep-23 09:33N 29°56' E 122°16'0 0.0
2014-Sep-23 08:33N 29°56' E 122°16'0 0.0
2014-Sep-23 07:33N 29°56' E 122°16'0 0.0
2014-Sep-23 03:21N 29°56' E 122°16'0 0.0
2014-Sep-23 02:33N 29°56' E 122°16'0 0.0
2014-Sep-22 23:05N 29°56' E 122°16'0 0.0
2014-Sep-22 22:33N 29°56' E 122°16'0 0.0
2014-Sep-22 21:33N 29°56' E 122°16'0 0.0
2014-Sep-22 20:33N 29°56' E 122°16'0 0.1
2014-Sep-22 19:33N 29°56' E 122°16'0 0.0
2014-Sep-22 18:33N 29°56' E 122°16'0 0.1
2014-Sep-22 17:33N 29°56' E 122°16'0 0.1
2014-Sep-22 16:33N 29°56' E 122°16'0 0.0
2014-Sep-22 15:33N 29°56' E 122°16'0 0.0
2014-Sep-22 14:33N 29°56' E 122°16'0 0.0
2014-Sep-22 13:33N 29°56' E 122°16'0 0.0
2014-Sep-22 12:33N 29°56' E 122°16'0 0.0
2014-Sep-22 11:33N 29°56' E 122°16'0 0.0
2014-Sep-22 10:33N 29°56' E 122°16'0 0.0
2014-Sep-22 09:33N 29°56' E 122°16'0 0.0
2014-Sep-22 08:33N 29°56' E 122°16'0 0.1
2014-Sep-22 07:33N 29°56' E 122°16'0 0.0
2014-Sep-22 06:33N 29°56' E 122°16'0 0.0
2014-Sep-22 05:33N 29°56' E 122°16'0 0.0
2014-Sep-22 04:33N 29°56' E 122°16'0 0.1
2014-Sep-22 03:33N 29°56' E 122°16'0 0.0
2014-Sep-22 02:33N 29°56' E 122°16'0 0.0
2014-Sep-22 01:33N 29°56' E 122°16'0 0.0
2014-Sep-22 00:33N 29°56' E 122°16'0 0.0
2014-Sep-21 23:33N 29°56' E 122°16'0 0.0
2014-Sep-21 22:33N 29°56' E 122°16'0 0.0
2014-Sep-21 21:33N 29°56' E 122°16'0 0.0
2014-Sep-21 20:33N 29°56' E 122°16'0 0.1
2014-Sep-21 19:33N 29°56' E 122°16'0 0.0
2014-Sep-21 18:33N 29°56' E 122°16'0 0.0
2014-Sep-21 17:34N 29°56' E 122°16'0 0.0
2014-Sep-21 16:33N 29°56' E 122°16'0 0.0
2014-Sep-21 15:33N 29°56' E 122°16'0 0.1
2014-Sep-21 14:34N 29°56' E 122°16'0 0.0
2014-Sep-21 13:33N 29°56' E 122°16'0 0.0
2014-Sep-21 12:33N 29°56' E 122°16'0 0.0
2014-Sep-21 11:33N 29°56' E 122°16'0 0.0
2014-Sep-21 10:33N 29°56' E 122°16'0 0.0
2014-Sep-21 09:33N 29°56' E 122°16'0 0.0
2014-Sep-21 08:33N 29°56' E 122°16'0 0.1
2014-Sep-21 07:33N 29°56' E 122°16'0 0.0
2014-Sep-21 06:33N 29°56' E 122°16'0 0.0
2014-Sep-21 05:33N 29°56' E 122°16'0 0.0
2014-Sep-21 04:34N 29°56' E 122°16'0 0.0
2014-Sep-21 03:33N 29°56' E 122°16'0 0.1
2014-Sep-21 02:33N 29°56' E 122°16'0 0.0
2014-Sep-21 01:33N 29°56' E 122°16'0 0.0
2014-Sep-21 00:33N 29°56' E 122°16'0 0.0
2014-Sep-20 23:33N 29°56' E 122°16'0 0.0
2014-Sep-20 22:33N 29°56' E 122°16'0 0.0
2014-Sep-20 21:33N 29°56' E 122°16'0 0.0
2014-Sep-20 20:33N 29°56' E 122°16'0 0.1
2014-Sep-20 19:33N 29°56' E 122°16'0 0.0
2014-Sep-20 18:34N 29°56' E 122°16'0 0.0
2014-Sep-20 17:33N 29°56' E 122°16'0 0.0
2014-Sep-20 16:34N 29°56' E 122°16'0 0.0
2014-Sep-20 15:33N 29°56' E 122°16'0 0.1
2014-Sep-20 14:33N 29°56' E 122°16'0 0.0
2014-Sep-20 13:33N 29°56' E 122°16'  
Track history (hours):
 
Tides and Currents Weather Stations Pressure Air Temp Water Temp Dewpoint Dewpoint Depression Visibility Wind Speed Wind Dir Waves Ship Positions

Zhe Pu Tuo 2012

Last reported at 2014-Sep-30 12:33 UTC. Time now 2014-Sep-30 14:02 UTC.
Position N 29°56' E 122°16'.

Length 57 m; draft 4 m.

MMSI: 412763040.

Date/timePositionNaut miles runAvg speedWind from/ knotsBaromVisibWave heightAir tempDewpointWater temp
2014-Sep-30 12:33N 29°56' E 122°16'0 0.0
2014-Sep-30 11:33N 29°56' E 122°16'0 0.0
2014-Sep-30 10:34N 29°56' E 122°16'0 0.0
2014-Sep-30 02:33N 29°56' E 122°16'0 0.0
2014-Sep-30 01:33N 29°56' E 122°16'0 0.0
2014-Sep-29 11:33N 29°56' E 122°16'0 0.0
2014-Sep-29 10:32N 29°56' E 122°16'0 0.0
2014-Sep-28 12:14N 29°56' E 122°16'0 0.0
2014-Sep-28 11:33N 29°56' E 122°16'0 0.0
2014-Sep-28 10:33N 29°56' E 122°16'0 0.0
2014-Sep-28 07:20N 29°56' E 122°16'1 1.0
2014-Sep-28 06:33N 29°55' E 122°17'8 7.7
2014-Sep-28 05:33N 29°50' E 122°23'8 7.9
2014-Sep-28 04:33N 29°52' E 122°32'8 8.2
2014-Sep-28 03:33N 29°56' E 122°40'7 6.4
2014-Sep-28 02:31N 29°60' E 122°47'7 6.7
2014-Sep-28 01:30N 29°56' E 122°40'9 8.0
2014-Sep-28 00:26N 29°52' E 122°31'7 6.8
2014-Sep-27 23:24N 29°50' E 122°24'8 9.2
2014-Sep-27 22:33N 29°55' E 122°17'1 0.1
2014-Sep-27 13:33N 29°56' E 122°16'0 0.0
2014-Sep-27 12:33N 29°56' E 122°16'0 0.0
2014-Sep-27 11:34N 29°56' E 122°16'0 0.1
2014-Sep-27 10:33N 29°56' E 122°17'0 0.0
2014-Sep-27 09:34N 29°56' E 122°17'0 0.0
2014-Sep-27 08:34N 29°56' E 122°17'0 0.0
2014-Sep-27 07:33N 29°56' E 122°17'0 0.0
2014-Sep-27 03:12N 29°56' E 122°16'0 0.0
2014-Sep-27 02:34N 29°56' E 122°16'0 0.0
2014-Sep-26 14:09N 29°56' E 122°16'0 0.0
2014-Sep-26 13:33N 29°56' E 122°16'0 0.0
2014-Sep-26 12:33N 29°56' E 122°16'0 0.0
2014-Sep-26 11:33N 29°56' E 122°16'0 0.1
2014-Sep-26 10:33N 29°56' E 122°17'0 0.0
2014-Sep-26 09:33N 29°56' E 122°17'0 0.0
2014-Sep-26 08:33N 29°56' E 122°17'0 0.0
2014-Sep-26 07:33N 29°56' E 122°17'0 0.0
2014-Sep-26 03:18N 29°56' E 122°16'0 0.0
2014-Sep-26 02:33N 29°56' E 122°16'0 0.0
2014-Sep-25 14:14N 29°56' E 122°16'0 0.0
2014-Sep-25 13:34N 29°56' E 122°16'0 0.0
2014-Sep-25 12:33N 29°56' E 122°16'0 0.0
2014-Sep-25 11:33N 29°56' E 122°16'0 0.1
2014-Sep-25 10:33N 29°56' E 122°17'0 0.0
2014-Sep-25 09:33N 29°56' E 122°17'3 3.2
2014-Sep-25 08:34N 29°54' E 122°20'6 5.9
2014-Sep-25 07:32N 29°50' E 122°24'8 8.4
2014-Sep-25 06:32N 29°53' E 122°33'5 1.1
2014-Sep-25 01:33N 29°50' E 122°28'7 6.7
2014-Sep-25 00:33N 29°53' E 122°21'5 5.3
2014-Sep-24 23:33N 29°57' E 122°16'1 0.6
2014-Sep-24 22:33N 29°56' E 122°16'0 0.1
2014-Sep-24 21:33N 29°56' E 122°16'0 0.0
2014-Sep-24 13:33N 29°56' E 122°16'0 0.0
2014-Sep-24 12:33N 29°56' E 122°16'0 0.0
2014-Sep-24 11:33N 29°56' E 122°16'0 0.0
2014-Sep-24 10:33N 29°56' E 122°16'0 0.1
2014-Sep-24 09:33N 29°56' E 122°16'0 0.0
2014-Sep-24 08:33N 29°56' E 122°16'0 0.0
2014-Sep-24 07:33N 29°56' E 122°16'0 0.0
2014-Sep-24 02:33N 29°56' E 122°16'0 0.0
2014-Sep-24 01:33N 29°56' E 122°16'0 0.4
2014-Sep-24 00:33N 29°56' E 122°16'0 0.1
2014-Sep-23 23:33N 29°56' E 122°16'0 0.0
2014-Sep-23 22:33N 29°56' E 122°16'0 0.0
2014-Sep-23 16:07N 29°56' E 122°16'0 0.1
2014-Sep-23 15:33N 29°56' E 122°16'0 0.0
2014-Sep-23 14:33N 29°56' E 122°16'0 0.0
2014-Sep-23 13:33N 29°56' E 122°16'0 0.0
2014-Sep-23 12:33N 29°56' E 122°16'0 0.0
2014-Sep-23 11:34N 29°56' E 122°16'0 0.0
2014-Sep-23 10:33N 29°56' E 122°16'0 0.1
2014-Sep-23 09:33N 29°56' E 122°16'0 0.0
2014-Sep-23 08:33N 29°56' E 122°16'0 0.0
2014-Sep-23 07:33N 29°56' E 122°16'0 0.0
2014-Sep-23 03:21N 29°56' E 122°16'0 0.0
2014-Sep-23 02:33N 29°56' E 122°16'0 0.0
2014-Sep-22 23:05N 29°56' E 122°16'0 0.0
2014-Sep-22 22:33N 29°56' E 122°16'0 0.0
2014-Sep-22 21:33N 29°56' E 122°16'0 0.0
2014-Sep-22 20:33N 29°56' E 122°16'0 0.1
2014-Sep-22 19:33N 29°56' E 122°16'0 0.0
2014-Sep-22 18:33N 29°56' E 122°16'0 0.1
2014-Sep-22 17:33N 29°56' E 122°16'0 0.1
2014-Sep-22 16:33N 29°56' E 122°16'0 0.0
2014-Sep-22 15:33N 29°56' E 122°16'0 0.0
2014-Sep-22 14:33N 29°56' E 122°16'0 0.0
2014-Sep-22 13:33N 29°56' E 122°16'0 0.0
2014-Sep-22 12:33N 29°56' E 122°16'0 0.0
2014-Sep-22 11:33N 29°56' E 122°16'0 0.0
2014-Sep-22 10:33N 29°56' E 122°16'0 0.0
2014-Sep-22 09:33N 29°56' E 122°16'0 0.0
2014-Sep-22 08:33N 29°56' E 122°16'0 0.1
2014-Sep-22 07:33N 29°56' E 122°16'0 0.0
2014-Sep-22 06:33N 29°56' E 122°16'0 0.0
2014-Sep-22 05:33N 29°56' E 122°16'0 0.0
2014-Sep-22 04:33N 29°56' E 122°16'0 0.1
2014-Sep-22 03:33N 29°56' E 122°16'0 0.0
2014-Sep-22 02:33N 29°56' E 122°16'0 0.0
2014-Sep-22 01:33N 29°56' E 122°16'0 0.0
2014-Sep-22 00:33N 29°56' E 122°16'0 0.0
2014-Sep-21 23:33N 29°56' E 122°16'0 0.0
2014-Sep-21 22:33N 29°56' E 122°16'0 0.0
2014-Sep-21 21:33N 29°56' E 122°16'0 0.0
2014-Sep-21 20:33N 29°56' E 122°16'0 0.1
2014-Sep-21 19:33N 29°56' E 122°16'0 0.0
2014-Sep-21 18:33N 29°56' E 122°16'0 0.0
2014-Sep-21 17:34N 29°56' E 122°16'0 0.0
2014-Sep-21 16:33N 29°56' E 122°16'0 0.0
2014-Sep-21 15:33N 29°56' E 122°16'0 0.1
2014-Sep-21 14:34N 29°56' E 122°16'0 0.0
2014-Sep-21 13:33N 29°56' E 122°16'0 0.0
2014-Sep-21 12:33N 29°56' E 122°16'0 0.0
2014-Sep-21 11:33N 29°56' E 122°16'0 0.0
2014-Sep-21 10:33N 29°56' E 122°16'0 0.0
2014-Sep-21 09:33N 29°56' E 122°16'0 0.0
2014-Sep-21 08:33N 29°56' E 122°16'0 0.1
2014-Sep-21 07:33N 29°56' E 122°16'0 0.0
2014-Sep-21 06:33N 29°56' E 122°16'0 0.0
2014-Sep-21 05:33N 29°56' E 122°16'0 0.0
2014-Sep-21 04:34N 29°56' E 122°16'0 0.0
2014-Sep-21 03:33N 29°56' E 122°16'0 0.1
2014-Sep-21 02:33N 29°56' E 122°16'0 0.0
2014-Sep-21 01:33N 29°56' E 122°16'0 0.0
2014-Sep-21 00:33N 29°56' E 122°16'0 0.0
2014-Sep-20 23:33N 29°56' E 122°16'0 0.0
2014-Sep-20 22:33N 29°56' E 122°16'0 0.0
2014-Sep-20 21:33N 29°56' E 122°16'0 0.0
2014-Sep-20 20:33N 29°56' E 122°16'0 0.1
2014-Sep-20 19:33N 29°56' E 122°16'0 0.0
2014-Sep-20 18:34N 29°56' E 122°16'0 0.0
2014-Sep-20 17:33N 29°56' E 122°16'0 0.0
2014-Sep-20 16:34N 29°56' E 122°16'0 0.0
2014-Sep-20 15:33N 29°56' E 122°16'0 0.1
2014-Sep-20 14:33N 29°56' E 122°16'0 0.0
2014-Sep-20 13:33N 29°56' E 122°16'  

Dump ship's entire track history